Terminal Aerodrome Forecast
Issued by NWS Shreveport, LA

Home | Current Version | Previous Version | Text Only | Print | Product List | Glossary On
Versions: 1 2 3 4 5 6 7 8 9 10 11 12 13 14 15 16 17 18
997
FTUS44 KSHV 281750
TAFTYR
TAF
KTYR 281750Z 2818/2918 12009KT P6SM SCT025 BKN035
     FM281900 14010KT P6SM BKN045
     FM290000 15008KT P6SM SCT050
     FM290700 15006KT P6SM SCT025 BKN035
     FM291000 15005KT P6SM BKN020 OVC035
      TEMPO 2910/2912 5SM BR BKN008 OVC015
     FM291200 14005KT 4SM BR OVC008
     FM291700 18008KT P6SM BKN035=

USA.gov is the U.S. government's official web portal to all federal, state and local government web resources and services.